sensor_id;sensor_type;location;lat;lon;timestamp;temperature;humidity
35541;DHT22;21650;48.840;9.162;2022-08-19T00:00:44;21.00;99.90
35541;DHT22;21650;48.840;9.162;2022-08-19T00:03:10;21.00;99.90
35541;DHT22;21650;48.840;9.162;2022-08-19T00:05:36;20.90;99.90
35541;DHT22;21650;48.840;9.162;2022-08-19T00:08:01;20.90;99.90
35541;DHT22;21650;48.840;9.162;2022-08-19T00:10:27;20.90;99.90
35541;DHT22;21650;48.840;9.162;2022-08-19T00:12:53;20.90;99.90
35541;DHT22;21650;48.840;9.162;2022-08-19T00:15:20;20.90;99.90
35541;DHT22;21650;48.840;9.162;2022-08-19T00:17:47;20.90;99.90
35541;DHT22;21650;48.840;9.162;2022-08-19T00:20:16;20.90;99.90
35541;DHT22;21650;48.840;9.162;2022-08-19T00:22:44;20.90;99.90
35541;DHT22;21650;48.840;9.162;2022-08-19T00:25:11;20.90;99.90
35541;DHT22;21650;48.840;9.162;2022-08-19T00:27:37;20.90;99.90
35541;DHT22;21650;48.840;9.162;2022-08-19T00:30:05;20.90;99.90
35541;DHT22;21650;48.840;9.162;2022-08-19T00:32:31;20.90;99.90
35541;DHT22;21650;48.840;9.162;2022-08-19T00:34:57;21.00;99.90
35541;DHT22;21650;48.840;9.162;2022-08-19T00:37:24;20.90;99.90
35541;DHT22;21650;48.840;9.162;2022-08-19T00:39:51;20.90;99.90
35541;DHT22;21650;48.840;9.162;2022-08-19T00:42:18;20.90;99.90
35541;DHT22;21650;48.840;9.162;2022-08-19T00:44:44;20.90;99.90
35541;DHT22;21650;48.840;9.162;2022-08-19T00:47:09;20.90;99.90
35541;DHT22;21650;48.840;9.162;2022-08-19T00:49:43;20.90;99.90
35541;DHT22;21650;48.840;9.162;2022-08-19T00:52:17;20.90;99.90
35541;DHT22;21650;48.840;9.162;2022-08-19T00:54:45;20.80;99.90
35541;DHT22;21650;48.840;9.162;2022-08-19T00:57:15;20.80;99.90
35541;DHT22;21650;48.840;9.162;2022-08-19T00:59:46;20.80;99.90
35541;DHT22;21650;48.840;9.162;2022-08-19T01:02:13;20.90;99.90
35541;DHT22;21650;48.840;9.162;2022-08-19T01:04:39;20.90;99.90
35541;DHT22;21650;48.840;9.162;2022-08-19T01:07:05;20.90;99.90
35541;DHT22;21650;48.840;9.162;2022-08-19T01:09:30;20.80;99.90
35541;DHT22;21650;48.840;9.162;2022-08-19T01:11:57;20.80;99.90
35541;DHT22;21650;48.840;9.162;2022-08-19T01:14:24;20.80;99.90
35541;DHT22;21650;48.840;9.162;2022-08-19T01:16:50;20.70;99.90
35541;DHT22;21650;48.840;9.162;2022-08-19T01:19:32;20.70;99.90
35541;DHT22;21650;48.840;9.162;2022-08-19T01:24:29;20.80;99.90
35541;DHT22;21650;48.840;9.162;2022-08-19T01:26:56;20.80;99.90
35541;DHT22;21650;48.840;9.162;2022-08-19T01:29:22;20.80;99.90
35541;DHT22;21650;48.840;9.162;2022-08-19T01:31:48;20.80;99.90
35541;DHT22;21650;48.840;9.162;2022-08-19T01:34:14;20.70;99.90
35541;DHT22;21650;48.840;9.162;2022-08-19T01:36:43;20.70;99.90
35541;DHT22;21650;48.840;9.162;2022-08-19T01:39:12;20.80;99.90
35541;DHT22;21650;48.840;9.162;2022-08-19T01:41:39;20.70;99.90
35541;DHT22;21650;48.840;9.162;2022-08-19T01:44:07;20.70;99.90
35541;DHT22;21650;48.840;9.162;2022-08-19T01:46:34;20.70;99.90
35541;DHT22;21650;48.840;9.162;2022-08-19T01:48:59;20.70;99.90
35541;DHT22;21650;48.840;9.162;2022-08-19T01:51:26;20.70;99.90
35541;DHT22;21650;48.840;9.162;2022-08-19T01:53:52;20.70;99.90
35541;DHT22;21650;48.840;9.162;2022-08-19T01:56:19;20.70;99.90
35541;DHT22;21650;48.840;9.162;2022-08-19T01:58:49;20.70;99.90
35541;DHT22;21650;48.840;9.162;2022-08-19T02:01:16;20.70;99.90
35541;DHT22;21650;48.840;9.162;2022-08-19T02:03:42;20.60;99.90
35541;DHT22;21650;48.840;9.162;2022-08-19T02:06:08;20.70;99.90
35541;DHT22;21650;48.840;9.162;2022-08-19T02:08:36;20.60;99.90
35541;DHT22;21650;48.840;9.162;2022-08-19T02:11:04;20.60;99.90
35541;DHT22;21650;48.840;9.162;2022-08-19T02:13:30;20.50;99.90
35541;DHT22;21650;48.840;9.162;2022-08-19T02:15:56;20.50;99.90
35541;DHT22;21650;48.840;9.162;2022-08-19T02:18:22;20.50;99.90
35541;DHT22;21650;48.840;9.162;2022-08-19T02:20:47;20.40;99.90
35541;DHT22;21650;48.840;9.162;2022-08-19T02:23:15;20.40;99.90
35541;DHT22;21650;48.840;9.162;2022-08-19T02:25:43;20.40;99.90
35541;DHT22;21650;48.840;9.162;2022-08-19T02:28:09;20.40;99.90
35541;DHT22;21650;48.840;9.162;2022-08-19T02:30:35;20.40;99.90
35541;DHT22;21650;48.840;9.162;2022-08-19T02:33:01;20.50;99.90
35541;DHT22;21650;48.840;9.162;2022-08-19T02:35:26;20.40;99.90
35541;DHT22;21650;48.840;9.162;2022-08-19T02:37:52;20.40;99.90
35541;DHT22;21650;48.840;9.162;2022-08-19T02:40:36;20.40;99.90
35541;DHT22;21650;48.840;9.162;2022-08-19T02:43:04;20.40;99.90
35541;DHT22;21650;48.840;9.162;2022-08-19T02:45:33;20.30;99.90
35541;DHT22;21650;48.840;9.162;2022-08-19T02:48:00;20.30;99.90
35541;DHT22;21650;48.840;9.162;2022-08-19T02:50:26;20.30;99.90
35541;DHT22;21650;48.840;9.162;2022-08-19T02:52:52;20.30;99.90
35541;DHT22;21650;48.840;9.162;2022-08-19T02:55:18;20.30;99.90
35541;DHT22;21650;48.840;9.162;2022-08-19T02:57:44;20.20;99.90
35541;DHT22;21650;48.840;9.162;2022-08-19T03:00:10;20.20;99.90
35541;DHT22;21650;48.840;9.162;2022-08-19T03:02:39;20.10;99.90
35541;DHT22;21650;48.840;9.162;2022-08-19T03:05:05;20.20;99.90
35541;DHT22;21650;48.840;9.162;2022-08-19T03:07:31;20.00;99.90
35541;DHT22;21650;48.840;9.162;2022-08-19T03:09:57;20.00;99.90
35541;DHT22;21650;48.840;9.162;2022-08-19T03:12:23;20.10;99.90
35541;DHT22;21650;48.840;9.162;2022-08-19T03:14:49;20.10;99.90
35541;DHT22;21650;48.840;9.162;2022-08-19T03:17:14;20.00;99.90
35541;DHT22;21650;48.840;9.162;2022-08-19T03:19:40;20.10;99.90
35541;DHT22;21650;48.840;9.162;2022-08-19T03:22:06;20.00;99.90
35541;DHT22;21650;48.840;9.162;2022-08-19T03:24:32;20.00;99.90
35541;DHT22;21650;48.840;9.162;2022-08-19T03:26:58;20.00;99.90
35541;DHT22;21650;48.840;9.162;2022-08-19T03:29:26;20.00;99.90
35541;DHT22;21650;48.840;9.162;2022-08-19T03:31:52;20.00;99.90
35541;DHT22;21650;48.840;9.162;2022-08-19T03:34:22;20.00;99.90
35541;DHT22;21650;48.840;9.162;2022-08-19T03:36:48;20.00;99.90
35541;DHT22;21650;48.840;9.162;2022-08-19T03:39:14;20.00;99.90
35541;DHT22;21650;48.840;9.162;2022-08-19T03:41:42;20.00;99.90
35541;DHT22;21650;48.840;9.162;2022-08-19T03:44:08;19.90;99.90
35541;DHT22;21650;48.840;9.162;2022-08-19T03:46:34;19.90;99.90
35541;DHT22;21650;48.840;9.162;2022-08-19T03:49:02;19.90;99.90
35541;DHT22;21650;48.840;9.162;2022-08-19T03:51:39;19.90;99.90
35541;DHT22;21650;48.840;9.162;2022-08-19T03:54:07;19.80;99.90
35541;DHT22;21650;48.840;9.162;2022-08-19T03:56:34;19.90;99.90
35541;DHT22;21650;48.840;9.162;2022-08-19T03:59:01;19.80;99.90
35541;DHT22;21650;48.840;9.162;2022-08-19T04:01:28;19.80;99.90
35541;DHT22;21650;48.840;9.162;2022-08-19T04:03:55;19.80;99.90
35541;DHT22;21650;48.840;9.162;2022-08-19T04:06:24;19.80;99.90
35541;DHT22;21650;48.840;9.162;2022-08-19T04:08:51;19.80;99.90
35541;DHT22;21650;48.840;9.162;2022-08-19T04:11:20;19.70;99.90
35541;DHT22;21650;48.840;9.162;2022-08-19T04:13:47;19.70;99.90
35541;DHT22;21650;48.840;9.162;2022-08-19T04:16:13;19.80;99.90
35541;DHT22;21650;48.840;9.162;2022-08-19T04:18:39;19.70;99.90
35541;DHT22;21650;48.840;9.162;2022-08-19T04:21:07;19.70;99.90
35541;DHT22;21650;48.840;9.162;2022-08-19T04:23:33;19.70;99.90
35541;DHT22;21650;48.840;9.162;2022-08-19T04:26:01;19.70;99.90
35541;DHT22;21650;48.840;9.162;2022-08-19T04:28:27;19.70;99.90
35541;DHT22;21650;48.840;9.162;2022-08-19T04:30:53;19.70;99.90
35541;DHT22;21650;48.840;9.162;2022-08-19T04:33:22;19.80;99.90
35541;DHT22;21650;48.840;9.162;2022-08-19T04:35:50;19.70;99.90
35541;DHT22;21650;48.840;9.162;2022-08-19T04:38:17;19.70;99.90
35541;DHT22;21650;48.840;9.162;2022-08-19T04:40:46;19.70;99.90
35541;DHT22;21650;48.840;9.162;2022-08-19T04:43:31;19.70;99.90
35541;DHT22;21650;48.840;9.162;2022-08-19T04:45:57;19.70;99.90
35541;DHT22;21650;48.840;9.162;2022-08-19T04:48:23;19.70;99.90
35541;DHT22;21650;48.840;9.162;2022-08-19T04:50:53;19.70;99.90
35541;DHT22;21650;48.840;9.162;2022-08-19T04:53:29;19.70;99.90
35541;DHT22;21650;48.840;9.162;2022-08-19T04:55:56;19.70;99.90
35541;DHT22;21650;48.840;9.162;2022-08-19T04:58:23;19.70;99.90
35541;DHT22;21650;48.840;9.162;2022-08-19T05:00:49;19.70;99.90
35541;DHT22;21650;48.840;9.162;2022-08-19T05:03:14;19.70;99.90
35541;DHT22;21650;48.840;9.162;2022-08-19T05:05:43;19.70;99.90
35541;DHT22;21650;48.840;9.162;2022-08-19T05:08:10;19.70;99.90
35541;DHT22;21650;48.840;9.162;2022-08-19T05:10:37;19.70;99.90
35541;DHT22;21650;48.840;9.162;2022-08-19T05:13:03;19.70;99.90
35541;DHT22;21650;48.840;9.162;2022-08-19T05:15:29;19.70;99.90
35541;DHT22;21650;48.840;9.162;2022-08-19T05:17:55;19.70;99.90
35541;DHT22;21650;48.840;9.162;2022-08-19T05:20:39;19.70;99.90
35541;DHT22;21650;48.840;9.162;2022-08-19T05:23:23;19.70;99.90
35541;DHT22;21650;48.840;9.162;2022-08-19T05:25:50;19.70;99.90
35541;DHT22;21650;48.840;9.162;2022-08-19T05:28:17;19.70;99.90
35541;DHT22;21650;48.840;9.162;2022-08-19T05:30:44;19.70;99.90
35541;DHT22;21650;48.840;9.162;2022-08-19T05:33:11;19.70;99.90
35541;DHT22;21650;48.840;9.162;2022-08-19T05:35:38;19.70;99.90
35541;DHT22;21650;48.840;9.162;2022-08-19T05:38:05;19.70;99.90
35541;DHT22;21650;48.840;9.162;2022-08-19T05:40:34;19.70;99.90
35541;DHT22;21650;48.840;9.162;2022-08-19T05:43:02;19.70;99.90
35541;DHT22;21650;48.840;9.162;2022-08-19T05:45:27;19.70;99.90
35541;DHT22;21650;48.840;9.162;2022-08-19T05:47:53;19.70;99.90
35541;DHT22;21650;48.840;9.162;2022-08-19T05:50:19;19.80;99.90
35541;DHT22;21650;48.840;9.162;2022-08-19T05:52:45;19.80;99.90
35541;DHT22;21650;48.840;9.162;2022-08-19T05:55:11;19.70;99.90
35541;DHT22;21650;48.840;9.162;2022-08-19T05:57:36;19.80;99.90
35541;DHT22;21650;48.840;9.162;2022-08-19T06:00:05;19.80;99.90
35541;DHT22;21650;48.840;9.162;2022-08-19T06:02:34;19.80;99.90
35541;DHT22;21650;48.840;9.162;2022-08-19T06:05:01;19.80;99.90
35541;DHT22;21650;48.840;9.162;2022-08-19T06:07:28;19.80;99.90
35541;DHT22;21650;48.840;9.162;2022-08-19T06:09:54;19.80;99.90
35541;DHT22;21650;48.840;9.162;2022-08-19T06:12:20;19.80;99.90
35541;DHT22;21650;48.840;9.162;2022-08-19T06:14:56;19.80;99.90
35541;DHT22;21650;48.840;9.162;2022-08-19T06:17:22;19.80;99.90
35541;DHT22;21650;48.840;9.162;2022-08-19T06:19:50;19.80;99.90
35541;DHT22;21650;48.840;9.162;2022-08-19T06:22:16;19.80;99.90
35541;DHT22;21650;48.840;9.162;2022-08-19T06:24:42;19.80;99.90
35541;DHT22;21650;48.840;9.162;2022-08-19T06:27:07;19.80;99.90
35541;DHT22;21650;48.840;9.162;2022-08-19T06:29:33;19.80;99.90
35541;DHT22;21650;48.840;9.162;2022-08-19T06:32:02;19.90;99.90
35541;DHT22;21650;48.840;9.162;2022-08-19T06:34:30;19.90;99.90
35541;DHT22;21650;48.840;9.162;2022-08-19T06:36:58;19.90;99.90
35541;DHT22;21650;48.840;9.162;2022-08-19T06:39:31;19.90;99.90
35541;DHT22;21650;48.840;9.162;2022-08-19T06:41:59;19.90;99.90
35541;DHT22;21650;48.840;9.162;2022-08-19T06:44:28;19.90;99.90
35541;DHT22;21650;48.840;9.162;2022-08-19T06:46:54;19.90;99.90
35541;DHT22;21650;48.840;9.162;2022-08-19T06:49:21;20.00;99.90
35541;DHT22;21650;48.840;9.162;2022-08-19T06:51:48;19.90;99.90
35541;DHT22;21650;48.840;9.162;2022-08-19T06:54:14;19.90;99.90
35541;DHT22;21650;48.840;9.162;2022-08-19T06:56:40;19.90;99.90
35541;DHT22;21650;48.840;9.162;2022-08-19T06:59:09;19.90;99.90
35541;DHT22;21650;48.840;9.162;2022-08-19T07:01:42;19.90;99.90
35541;DHT22;21650;48.840;9.162;2022-08-19T07:04:09;19.80;99.90
35541;DHT22;21650;48.840;9.162;2022-08-19T07:06:36;19.90;99.90
35541;DHT22;21650;48.840;9.162;2022-08-19T07:09:06;19.80;99.90
35541;DHT22;21650;48.840;9.162;2022-08-19T07:11:32;19.80;99.90
35541;DHT22;21650;48.840;9.162;2022-08-19T07:13:58;19.90;99.90
35541;DHT22;21650;48.840;9.162;2022-08-19T07:16:24;19.90;99.90
35541;DHT22;21650;48.840;9.162;2022-08-19T07:18:50;19.90;99.90
35541;DHT22;21650;48.840;9.162;2022-08-19T07:21:20;19.90;99.90
35541;DHT22;21650;48.840;9.162;2022-08-19T07:23:47;19.90;99.90
35541;DHT22;21650;48.840;9.162;2022-08-19T07:26:19;19.90;99.90
35541;DHT22;21650;48.840;9.162;2022-08-19T07:28:47;19.90;99.90
35541;DHT22;21650;48.840;9.162;2022-08-19T07:31:14;20.00;99.90
35541;DHT22;21650;48.840;9.162;2022-08-19T07:33:41;19.90;99.90
35541;DHT22;21650;48.840;9.162;2022-08-19T07:36:09;19.90;99.90
35541;DHT22;21650;48.840;9.162;2022-08-19T07:38:40;19.90;99.90
35541;DHT22;21650;48.840;9.162;2022-08-19T07:41:07;19.90;99.90
35541;DHT22;21650;48.840;9.162;2022-08-19T07:43:34;19.90;99.90
35541;DHT22;21650;48.840;9.162;2022-08-19T07:45:59;19.90;99.90
35541;DHT22;21650;48.840;9.162;2022-08-19T07:48:27;19.90;99.90
35541;DHT22;21650;48.840;9.162;2022-08-19T07:50:54;19.90;99.90
35541;DHT22;21650;48.840;9.162;2022-08-19T07:53:21;20.00;99.90
35541;DHT22;21650;48.840;9.162;2022-08-19T07:55:47;20.00;99.90
35541;DHT22;21650;48.840;9.162;2022-08-19T07:58:15;20.00;99.90
35541;DHT22;21650;48.840;9.162;2022-08-19T08:00:42;20.00;99.90
35541;DHT22;21650;48.840;9.162;2022-08-19T08:03:09;20.00;99.90
35541;DHT22;21650;48.840;9.162;2022-08-19T08:05:35;20.10;99.90
35541;DHT22;21650;48.840;9.162;2022-08-19T08:08:19;20.10;99.90
35541;DHT22;21650;48.840;9.162;2022-08-19T08:10:48;20.10;99.90
35541;DHT22;21650;48.840;9.162;2022-08-19T08:13:13;20.10;99.90
35541;DHT22;21650;48.840;9.162;2022-08-19T08:15:39;20.10;99.90
35541;DHT22;21650;48.840;9.162;2022-08-19T08:18:05;20.10;99.90
35541;DHT22;21650;48.840;9.162;2022-08-19T08:20:32;20.20;99.90
35541;DHT22;21650;48.840;9.162;2022-08-19T08:22:57;20.20;99.90
35541;DHT22;21650;48.840;9.162;2022-08-19T08:25:41;20.20;99.90
35541;DHT22;21650;48.840;9.162;2022-08-19T08:28:07;20.20;99.90
35541;DHT22;21650;48.840;9.162;2022-08-19T08:30:34;20.20;99.90
35541;DHT22;21650;48.840;9.162;2022-08-19T08:33:01;20.20;99.90
35541;DHT22;21650;48.840;9.162;2022-08-19T08:35:27;20.20;99.90
35541;DHT22;21650;48.840;9.162;2022-08-19T08:37:54;20.10;99.90
35541;DHT22;21650;48.840;9.162;2022-08-19T08:43:01;19.90;99.90
35541;DHT22;21650;48.840;9.162;2022-08-19T08:45:30;19.90;99.90
35541;DHT22;21650;48.840;9.162;2022-08-19T08:48:02;19.90;99.90
35541;DHT22;21650;48.840;9.162;2022-08-19T08:50:36;19.90;99.90
35541;DHT22;21650;48.840;9.162;2022-08-19T08:53:06;19.90;99.90
35541;DHT22;21650;48.840;9.162;2022-08-19T08:55:33;19.90;99.90
35541;DHT22;21650;48.840;9.162;2022-08-19T08:58:27;19.90;99.90
35541;DHT22;21650;48.840;9.162;2022-08-19T09:00:54;20.00;99.90
35541;DHT22;21650;48.840;9.162;2022-08-19T09:03:27;20.00;99.90
35541;DHT22;21650;48.840;9.162;2022-08-19T09:09:14;20.10;99.90
35541;DHT22;21650;48.840;9.162;2022-08-19T09:16:50;20.20;99.90
35541;DHT22;21650;48.840;9.162;2022-08-19T09:19:17;20.30;99.90
35541;DHT22;21650;48.840;9.162;2022-08-19T09:21:43;20.40;99.90
35541;DHT22;21650;48.840;9.162;2022-08-19T09:24:08;20.60;99.90
35541;DHT22;21650;48.840;9.162;2022-08-19T09:26:34;20.60;99.90
35541;DHT22;21650;48.840;9.162;2022-08-19T09:29:01;20.70;99.90
35541;DHT22;21650;48.840;9.162;2022-08-19T09:31:30;20.80;99.90
35541;DHT22;21650;48.840;9.162;2022-08-19T09:33:58;20.80;99.90
35541;DHT22;21650;48.840;9.162;2022-08-19T09:36:27;20.90;99.90
35541;DHT22;21650;48.840;9.162;2022-08-19T09:38:54;20.90;99.90
35541;DHT22;21650;48.840;9.162;2022-08-19T09:41:23;21.00;99.90
35541;DHT22;21650;48.840;9.162;2022-08-19T09:43:50;21.10;99.90
35541;DHT22;21650;48.840;9.162;2022-08-19T09:46:21;21.20;99.90
35541;DHT22;21650;48.840;9.162;2022-08-19T09:48:48;21.10;99.90
35541;DHT22;21650;48.840;9.162;2022-08-19T09:51:16;21.10;99.90
35541;DHT22;21650;48.840;9.162;2022-08-19T09:53:44;21.10;99.90
35541;DHT22;21650;48.840;9.162;2022-08-19T09:56:11;21.20;99.90
35541;DHT22;21650;48.840;9.162;2022-08-19T09:58:37;21.20;99.90
35541;DHT22;21650;48.840;9.162;2022-08-19T10:01:04;21.20;99.90
35541;DHT22;21650;48.840;9.162;2022-08-19T10:03:30;21.20;99.90
35541;DHT22;21650;48.840;9.162;2022-08-19T10:05:58;21.20;99.90
35541;DHT22;21650;48.840;9.162;2022-08-19T10:08:29;21.20;99.90
35541;DHT22;21650;48.840;9.162;2022-08-19T10:10:57;21.20;99.90
35541;DHT22;21650;48.840;9.162;2022-08-19T10:13:25;21.30;99.90
35541;DHT22;21650;48.840;9.162;2022-08-19T10:16:02;21.30;99.90
35541;DHT22;21650;48.840;9.162;2022-08-19T10:18:28;21.30;99.90
35541;DHT22;21650;48.840;9.162;2022-08-19T10:21:13;21.30;99.90
35541;DHT22;21650;48.840;9.162;2022-08-19T10:23:42;21.30;99.90
35541;DHT22;21650;48.840;9.162;2022-08-19T10:26:13;21.40;99.90
35541;DHT22;21650;48.840;9.162;2022-08-19T10:28:40;21.40;99.90
35541;DHT22;21650;48.840;9.162;2022-08-19T10:31:09;21.50;99.90
35541;DHT22;21650;48.840;9.162;2022-08-19T10:33:36;21.60;99.90
35541;DHT22;21650;48.840;9.162;2022-08-19T10:36:11;21.70;99.90
35541;DHT22;21650;48.840;9.162;2022-08-19T10:38:37;21.80;99.90
35541;DHT22;21650;48.840;9.162;2022-08-19T10:41:17;21.90;99.90
35541;DHT22;21650;48.840;9.162;2022-08-19T10:43:44;21.90;99.90
35541;DHT22;21650;48.840;9.162;2022-08-19T10:46:13;22.00;99.90
35541;DHT22;21650;48.840;9.162;2022-08-19T10:48:39;22.00;99.90
35541;DHT22;21650;48.840;9.162;2022-08-19T10:51:05;22.10;99.90
35541;DHT22;21650;48.840;9.162;2022-08-19T10:53:50;22.00;99.90
35541;DHT22;21650;48.840;9.162;2022-08-19T10:56:16;22.00;99.90
35541;DHT22;21650;48.840;9.162;2022-08-19T10:59:01;22.00;99.90
35541;DHT22;21650;48.840;9.162;2022-08-19T11:01:29;21.90;99.90
35541;DHT22;21650;48.840;9.162;2022-08-19T11:03:55;22.00;99.90
35541;DHT22;21650;48.840;9.162;2022-08-19T11:06:23;22.10;99.90
35541;DHT22;21650;48.840;9.162;2022-08-19T11:08:51;22.20;99.90
35541;DHT22;21650;48.840;9.162;2022-08-19T11:11:17;22.40;99.90
35541;DHT22;21650;48.840;9.162;2022-08-19T11:13:42;22.50;99.90
35541;DHT22;21650;48.840;9.162;2022-08-19T11:16:10;22.60;99.90
35541;DHT22;21650;48.840;9.162;2022-08-19T11:18:41;22.70;99.90
35541;DHT22;21650;48.840;9.162;2022-08-19T11:21:17;22.70;99.90
35541;DHT22;21650;48.840;9.162;2022-08-19T11:23:45;22.70;99.90
35541;DHT22;21650;48.840;9.162;2022-08-19T11:26:11;22.70;99.90
35541;DHT22;21650;48.840;9.162;2022-08-19T11:28:37;22.70;99.90
35541;DHT22;21650;48.840;9.162;2022-08-19T11:31:04;22.70;99.90
35541;DHT22;21650;48.840;9.162;2022-08-19T11:33:32;22.70;99.90
35541;DHT22;21650;48.840;9.162;2022-08-19T11:35:58;22.70;99.90
35541;DHT22;21650;48.840;9.162;2022-08-19T11:38:26;22.70;99.90
35541;DHT22;21650;48.840;9.162;2022-08-19T11:41:00;22.70;99.90
35541;DHT22;21650;48.840;9.162;2022-08-19T11:43:26;22.80;99.90
35541;DHT22;21650;48.840;9.162;2022-08-19T11:45:56;22.90;99.90
35541;DHT22;21650;48.840;9.162;2022-08-19T11:48:23;23.00;99.90
35541;DHT22;21650;48.840;9.162;2022-08-19T11:50:50;23.00;99.90
35541;DHT22;21650;48.840;9.162;2022-08-19T11:53:17;23.00;99.90
35541;DHT22;21650;48.840;9.162;2022-08-19T11:55:48;23.00;99.90
35541;DHT22;21650;48.840;9.162;2022-08-19T11:58:16;22.90;99.90
35541;DHT22;21650;48.840;9.162;2022-08-19T12:00:42;22.90;99.90
35541;DHT22;21650;48.840;9.162;2022-08-19T12:03:11;22.80;99.90
35541;DHT22;21650;48.840;9.162;2022-08-19T12:05:38;22.80;99.90
35541;DHT22;21650;48.840;9.162;2022-08-19T12:08:05;22.80;99.90
35541;DHT22;21650;48.840;9.162;2022-08-19T12:10:32;22.80;99.90
35541;DHT22;21650;48.840;9.162;2022-08-19T12:12:58;22.90;99.90
35541;DHT22;21650;48.840;9.162;2022-08-19T12:15:23;22.90;99.90
35541;DHT22;21650;48.840;9.162;2022-08-19T12:17:49;22.90;99.90
35541;DHT22;21650;48.840;9.162;2022-08-19T12:20:15;22.90;99.90
35541;DHT22;21650;48.840;9.162;2022-08-19T12:22:43;22.90;99.90
35541;DHT22;21650;48.840;9.162;2022-08-19T12:25:10;22.90;99.90
35541;DHT22;21650;48.840;9.162;2022-08-19T12:27:37;22.90;99.90
35541;DHT22;21650;48.840;9.162;2022-08-19T12:30:06;22.90;99.90
35541;DHT22;21650;48.840;9.162;2022-08-19T12:32:32;22.90;99.90
35541;DHT22;21650;48.840;9.162;2022-08-19T12:34:58;23.00;99.90
35541;DHT22;21650;48.840;9.162;2022-08-19T12:37:23;23.00;99.90
35541;DHT22;21650;48.840;9.162;2022-08-19T12:39:49;23.10;99.90
35541;DHT22;21650;48.840;9.162;2022-08-19T12:42:15;23.10;99.90
35541;DHT22;21650;48.840;9.162;2022-08-19T12:44:42;23.20;99.90
35541;DHT22;21650;48.840;9.162;2022-08-19T12:47:10;23.30;99.90
35541;DHT22;21650;48.840;9.162;2022-08-19T12:49:36;23.40;99.90
35541;DHT22;21650;48.840;9.162;2022-08-19T12:52:07;23.50;99.90
35541;DHT22;21650;48.840;9.162;2022-08-19T12:54:34;23.50;99.90
35541;DHT22;21650;48.840;9.162;2022-08-19T12:57:00;23.40;99.90
35541;DHT22;21650;48.840;9.162;2022-08-19T12:59:29;23.40;99.90
35541;DHT22;21650;48.840;9.162;2022-08-19T13:01:55;23.40;99.90
35541;DHT22;21650;48.840;9.162;2022-08-19T13:04:20;23.40;99.90
35541;DHT22;21650;48.840;9.162;2022-08-19T13:06:46;23.30;99.90
35541;DHT22;21650;48.840;9.162;2022-08-19T13:09:11;23.20;99.90
35541;DHT22;21650;48.840;9.162;2022-08-19T13:11:37;23.10;99.90
35541;DHT22;21650;48.840;9.162;2022-08-19T13:14:04;22.90;99.90
35541;DHT22;21650;48.840;9.162;2022-08-19T13:16:30;22.80;99.90
35541;DHT22;21650;48.840;9.162;2022-08-19T13:18:57;22.80;99.90
35541;DHT22;21650;48.840;9.162;2022-08-19T13:21:25;22.70;99.90
35541;DHT22;21650;48.840;9.162;2022-08-19T13:23:52;22.70;99.90
35541;DHT22;21650;48.840;9.162;2022-08-19T13:26:18;22.80;99.90
35541;DHT22;21650;48.840;9.162;2022-08-19T13:28:44;22.80;99.90
35541;DHT22;21650;48.840;9.162;2022-08-19T13:31:31;22.70;99.90
35541;DHT22;21650;48.840;9.162;2022-08-19T13:34:18;22.60;99.90
35541;DHT22;21650;48.840;9.162;2022-08-19T13:36:44;22.50;99.90
35541;DHT22;21650;48.840;9.162;2022-08-19T13:39:10;22.50;99.90
35541;DHT22;21650;48.840;9.162;2022-08-19T13:41:36;22.40;99.90
35541;DHT22;21650;48.840;9.162;2022-08-19T13:44:03;22.40;99.90
35541;DHT22;21650;48.840;9.162;2022-08-19T13:46:29;22.20;99.90
35541;DHT22;21650;48.840;9.162;2022-08-19T13:48:56;22.10;99.90
35541;DHT22;21650;48.840;9.162;2022-08-19T13:51:22;22.00;99.90
35541;DHT22;21650;48.840;9.162;2022-08-19T13:53:47;21.80;99.90
35541;DHT22;21650;48.840;9.162;2022-08-19T13:56:15;21.80;99.90
35541;DHT22;21650;48.840;9.162;2022-08-19T13:58:42;21.70;99.90
35541;DHT22;21650;48.840;9.162;2022-08-19T14:01:09;21.60;99.90
35541;DHT22;21650;48.840;9.162;2022-08-19T14:03:35;21.60;99.90
35541;DHT22;21650;48.840;9.162;2022-08-19T14:06:02;21.60;99.90
35541;DHT22;21650;48.840;9.162;2022-08-19T14:08:28;21.60;99.90
35541;DHT22;21650;48.840;9.162;2022-08-19T14:10:55;21.70;99.90
35541;DHT22;21650;48.840;9.162;2022-08-19T14:13:22;21.70;99.90
35541;DHT22;21650;48.840;9.162;2022-08-19T14:15:48;21.70;99.90
35541;DHT22;21650;48.840;9.162;2022-08-19T14:18:16;21.70;99.90
35541;DHT22;21650;48.840;9.162;2022-08-19T14:20:42;21.80;99.90
35541;DHT22;21650;48.840;9.162;2022-08-19T14:23:08;21.80;99.90
35541;DHT22;21650;48.840;9.162;2022-08-19T14:25:34;21.80;99.90
35541;DHT22;21650;48.840;9.162;2022-08-19T14:28:00;21.90;99.90
35541;DHT22;21650;48.840;9.162;2022-08-19T14:30:29;22.00;99.90
35541;DHT22;21650;48.840;9.162;2022-08-19T14:32:56;22.00;99.90
35541;DHT22;21650;48.840;9.162;2022-08-19T14:35:22;22.10;99.90
35541;DHT22;21650;48.840;9.162;2022-08-19T14:37:48;22.00;99.90
35541;DHT22;21650;48.840;9.162;2022-08-19T14:40:17;22.00;99.90
35541;DHT22;21650;48.840;9.162;2022-08-19T14:42:43;22.00;99.90
35541;DHT22;21650;48.840;9.162;2022-08-19T14:45:10;21.90;99.90
35541;DHT22;21650;48.840;9.162;2022-08-19T14:47:37;21.90;99.90
35541;DHT22;21650;48.840;9.162;2022-08-19T14:50:05;21.90;99.90
35541;DHT22;21650;48.840;9.162;2022-08-19T14:52:32;21.90;99.90
35541;DHT22;21650;48.840;9.162;2022-08-19T14:54:57;21.90;99.90
35541;DHT22;21650;48.840;9.162;2022-08-19T14:57:23;21.90;99.90
35541;DHT22;21650;48.840;9.162;2022-08-19T14:59:49;22.10;99.90
35541;DHT22;21650;48.840;9.162;2022-08-19T15:02:14;22.20;99.90
35541;DHT22;21650;48.840;9.162;2022-08-19T15:04:40;22.30;99.90
35541;DHT22;21650;48.840;9.162;2022-08-19T15:07:06;22.50;99.90
35541;DHT22;21650;48.840;9.162;2022-08-19T15:09:32;22.60;99.90
35541;DHT22;21650;48.840;9.162;2022-08-19T15:11:58;22.70;99.90
35541;DHT22;21650;48.840;9.162;2022-08-19T15:14:25;22.70;99.90
35541;DHT22;21650;48.840;9.162;2022-08-19T15:16:51;22.80;99.90
35541;DHT22;21650;48.840;9.162;2022-08-19T15:19:17;22.80;99.90
35541;DHT22;21650;48.840;9.162;2022-08-19T15:21:43;22.90;99.90
35541;DHT22;21650;48.840;9.162;2022-08-19T15:24:08;22.80;99.90
35541;DHT22;21650;48.840;9.162;2022-08-19T15:26:34;22.90;99.90
35541;DHT22;21650;48.840;9.162;2022-08-19T15:29:01;22.90;99.90
35541;DHT22;21650;48.840;9.162;2022-08-19T15:31:27;22.90;99.90
35541;DHT22;21650;48.840;9.162;2022-08-19T15:33:55;23.00;99.90
35541;DHT22;21650;48.840;9.162;2022-08-19T15:36:23;23.00;99.90
35541;DHT22;21650;48.840;9.162;2022-08-19T15:38:49;23.10;99.90
35541;DHT22;21650;48.840;9.162;2022-08-19T15:41:23;23.20;99.90
35541;DHT22;21650;48.840;9.162;2022-08-19T15:44:04;23.20;99.90
35541;DHT22;21650;48.840;9.162;2022-08-19T15:46:33;23.20;99.90